Time;durP1;ratioP1;P1;durP2;ratioP2;P2;SDS_P1;SDS_P2;PMS_P1;PMS_P2;Temp;Humidity;BMP_temperature;BMP_pressure;BME280_temperature;BME280_humidity;BME280_pressure;Samples;Min_cycle;Max_cycle;Signal;HPM_P1;HPM_P2
2021/03/06 00:00:09;;;;;;;4.97;2.95;;;;;;;;;;5096399;28;20211;-64
2021/03/06 00:02:36;;;;;;;4.28;3.30;;;;;;;;;;5094475;28;20211;-64
2021/03/06 00:05:03;;;;;;;6.45;3.20;;;;;;;;;;5093596;28;20572;-63
2021/03/06 00:07:29;;;;;;;4.45;3.67;;;;;;;;;;5093129;28;20212;-64
2021/03/06 00:09:56;;;;;;;4.75;3.50;;;;;;;;;;5093481;28;20196;-64
2021/03/06 00:12:23;;;;;;;4.10;3.13;;;;;;;;;;5093429;28;20200;-64
2021/03/06 00:14:50;;;;;;;4.82;3.20;;;;;;;;;;5093002;28;20220;-64
2021/03/06 00:17:17;;;;;;;4.10;3.10;;;;;;;;;;5093306;28;20612;-63
2021/03/06 00:19:44;;;;;;;5.55;3.80;;;;;;;;;;5093365;28;20230;-64
2021/03/06 00:22:11;;;;;;;5.05;3.28;;;;;;;;;;5096117;28;20200;-65
2021/03/06 00:24:38;;;;;;;5.88;3.80;;;;;;;;;;5108971;28;20228;-65
2021/03/06 00:27:05;;;;;;;8.82;3.95;;;;;;;;;;5108559;28;20200;-65
2021/03/06 00:29:31;;;;;;;4.68;3.22;;;;;;;;;;5108260;28;20220;-64
2021/03/06 00:31:58;;;;;;;3.75;3.17;;;;;;;;;;5103057;28;20200;-64
2021/03/06 00:34:26;;;;;;;5.20;3.65;;;;;;;;;;5099520;28;20723;-64
2021/03/06 00:36:52;;;;;;;4.13;3.47;;;;;;;;;;5099018;28;20249;-64
2021/03/06 00:39:19;;;;;;;3.92;3.38;;;;;;;;;;5098901;28;20200;-64
2021/03/06 00:41:46;;;;;;;5.68;3.00;;;;;;;;;;5099499;28;20250;-63
2021/03/06 00:44:13;;;;;;;6.25;3.85;;;;;;;;;;5099450;28;20253;-64
2021/03/06 00:46:39;;;;;;;5.55;3.30;;;;;;;;;;5098919;28;20272;-63
2021/03/06 00:49:06;;;;;;;5.45;3.75;;;;;;;;;;5097816;28;20222;-64
2021/03/06 00:51:34;;;;;;;7.10;3.42;;;;;;;;;;5098317;28;20212;-62
2021/03/06 00:54:01;;;;;;;5.32;3.95;;;;;;;;;;5097455;28;20220;-64
2021/03/06 00:56:27;;;;;;;5.25;4.13;;;;;;;;;;5097386;28;20200;-64
2021/03/06 00:58:54;;;;;;;7.97;4.00;;;;;;;;;;5097275;28;20249;-63
2021/03/06 01:01:21;;;;;;;5.93;4.35;;;;;;;;;;5096723;28;20544;-63
2021/03/06 01:03:48;;;;;;;6.22;4.10;;;;;;;;;;5096737;28;20220;-63
2021/03/06 01:06:14;;;;;;;6.07;4.28;;;;;;;;;;5096734;28;20219;-64
2021/03/06 01:08:42;;;;;;;7.10;4.50;;;;;;;;;;5096888;28;20216;-64
2021/03/06 01:11:09;;;;;;;6.05;4.70;;;;;;;;;;5096857;28;20204;-64
2021/03/06 01:13:36;;;;;;;5.55;4.50;;;;;;;;;;5096667;28;20261;-62
2021/03/06 01:16:02;;;;;;;6.13;5.53;;;;;;;;;;5096690;28;20695;-63
2021/03/06 01:18:29;;;;;;;9.63;5.88;;;;;;;;;;5098126;28;20322;-62
2021/03/06 01:20:56;;;;;;;9.02;5.50;;;;;;;;;;5099552;28;20204;-63
2021/03/06 01:23:23;;;;;;;7.72;5.90;;;;;;;;;;5100964;28;20731;-62
2021/03/06 01:25:50;;;;;;;8.77;5.65;;;;;;;;;;5101259;28;20257;-64
2021/03/06 01:28:17;;;;;;;8.77;6.03;;;;;;;;;;5099748;28;20242;-64
2021/03/06 01:30:44;;;;;;;9.18;5.20;;;;;;;;;;5097128;28;20233;-62
2021/03/06 01:33:11;;;;;;;8.60;5.93;;;;;;;;;;5098939;28;20220;-64
2021/03/06 01:35:37;;;;;;;5.70;4.60;;;;;;;;;;5096788;28;20208;-63
2021/03/06 01:38:04;;;;;;;8.50;4.30;;;;;;;;;;5097339;28;20200;-63
2021/03/06 01:40:32;;;;;;;6.80;4.40;;;;;;;;;;5097146;28;20552;-63
2021/03/06 01:43:00;;;;;;;6.07;5.05;;;;;;;;;;5097267;28;20196;-63
2021/03/06 01:45:27;;;;;;;7.18;4.78;;;;;;;;;;5098159;28;20569;-62
2021/03/06 01:47:54;;;;;;;5.05;3.97;;;;;;;;;;5097310;28;20266;-63
2021/03/06 01:50:22;;;;;;;4.85;4.28;;;;;;;;;;5098724;28;20200;-64
2021/03/06 01:52:49;;;;;;;6.93;4.18;;;;;;;;;;5106995;28;20196;-65
2021/03/06 01:55:17;;;;;;;7.18;3.80;;;;;;;;;;5103242;28;20227;-63
2021/03/06 01:57:44;;;;;;;7.95;5.20;;;;;;;;;;5099185;28;20200;-63
2021/03/06 02:00:12;;;;;;;7.43;3.75;;;;;;;;;;5097040;28;20257;-63
2021/03/06 02:02:39;;;;;;;5.60;3.28;;;;;;;;;;5095899;28;20212;-63
2021/03/06 02:05:06;;;;;;;7.13;3.45;;;;;;;;;;5098258;28;20231;-63
2021/03/06 02:07:33;;;;;;;6.63;3.50;;;;;;;;;;5096963;28;20556;-63
2021/03/06 02:10:01;;;;;;;5.38;3.35;;;;;;;;;;5096523;28;20208;-62
2021/03/06 02:12:31;;;;;;;4.15;3.58;;;;;;;;;;5096185;28;20676;-63
2021/03/06 02:15:06;;;;;;;6.78;3.00;;;;;;;;;;5096232;28;20236;-62
2021/03/06 02:17:38;;;;;;;10.30;3.50;;;;;;;;;;5096595;28;20245;-63
2021/03/06 02:20:24;;;;;;;7.63;3.15;;;;;;;;;;5096419;28;20241;-63
2021/03/06 02:23:19;;;;;;;5.10;3.38;;;;;;;;;;5095353;28;20531;-63
2021/03/06 02:25:55;;;;;;;13.45;3.90;;;;;;;;;;5095918;28;20181;-63
2021/03/06 02:28:28;;;;;;;5.82;2.90;;;;;;;;;;5095951;28;20212;-63
2021/03/06 02:30:57;;;;;;;6.55;3.30;;;;;;;;;;5097095;28;20740;-63
2021/03/06 02:33:26;;;;;;;4.55;3.00;;;;;;;;;;5095969;28;20682;-64
2021/03/06 02:35:53;;;;;;;4.70;3.95;;;;;;;;;;5095067;28;20672;-63
2021/03/06 02:38:21;;;;;;;4.82;3.20;;;;;;;;;;5095221;28;20587;-64
2021/03/06 02:40:48;;;;;;;6.90;3.45;;;;;;;;;;5094695;28;20201;-64
2021/03/06 02:43:15;;;;;;;17.65;3.22;;;;;;;;;;5095111;28;20716;-64
2021/03/06 02:45:42;;;;;;;3.13;2.83;;;;;;;;;;5095350;28;20207;-63
2021/03/06 02:48:10;;;;;;;9.90;3.25;;;;;;;;;;5095728;28;20217;-63
2021/03/06 02:50:37;;;;;;;3.22;2.90;;;;;;;;;;5112573;28;20200;-64
2021/03/06 02:53:04;;;;;;;4.38;3.17;;;;;;;;;;5096961;28;20236;-63
2021/03/06 02:55:30;;;;;;;5.88;3.65;;;;;;;;;;5095272;28;20668;-62
2021/03/06 02:58:05;;;;;;;9.40;4.20;;;;;;;;;;5096111;28;20192;-64
2021/03/06 03:00:36;;;;;;;5.22;3.63;;;;;;;;;;5095444;28;20193;-63
2021/03/06 03:03:10;;;;;;;4.88;3.65;;;;;;;;;;5095938;28;20185;-63
2021/03/06 03:05:44;;;;;;;6.28;3.50;;;;;;;;;;5094924;28;20192;-63
2021/03/06 03:08:12;;;;;;;7.68;3.60;;;;;;;;;;5095607;28;20231;-63
2021/03/06 03:10:40;;;;;;;4.72;3.05;;;;;;;;;;5094929;28;20208;-63
2021/03/06 03:13:11;;;;;;;4.22;3.42;;;;;;;;;;5094800;28;20224;-63
2021/03/06 03:15:39;;;;;;;5.35;3.28;;;;;;;;;;5095531;28;20200;-64
2021/03/06 03:18:08;;;;;;;5.93;4.13;;;;;;;;;;5095135;28;20211;-63
2021/03/06 03:20:36;;;;;;;6.25;3.35;;;;;;;;;;5094822;28;20254;-62
2021/03/06 03:23:05;;;;;;;5.35;3.28;;;;;;;;;;5094240;28;20676;-63
2021/03/06 03:25:32;;;;;;;5.43;3.25;;;;;;;;;;5094273;28;20204;-64
2021/03/06 03:28:00;;;;;;;6.03;3.88;;;;;;;;;;5094263;28;20216;-64
2021/03/06 03:30:27;;;;;;;8.45;4.03;;;;;;;;;;5094338;28;20277;-64
2021/03/06 03:32:54;;;;;;;8.93;3.90;;;;;;;;;;5107894;28;20181;-66
2021/03/06 03:35:23;;;;;;;4.57;3.60;;;;;;;;;;5117247;28;20181;-64
2021/03/06 03:37:50;;;;;;;4.53;3.85;;;;;;;;;;5117011;28;20230;-63
2021/03/06 03:40:19;;;;;;;5.70;3.83;;;;;;;;;;5100007;28;20239;-63
2021/03/06 03:42:46;;;;;;;8.85;5.22;;;;;;;;;;5094651;28;20200;-64
2021/03/06 03:45:14;;;;;;;4.20;3.67;;;;;;;;;;5094038;28;20204;-64
2021/03/06 03:47:42;;;;;;;6.45;3.20;;;;;;;;;;5093460;28;20672;-64
2021/03/06 03:50:10;;;;;;;8.38;3.90;;;;;;;;;;5093443;28;20201;-63
2021/03/06 03:52:37;;;;;;;5.03;3.72;;;;;;;;;;5093722;28;20208;-64
2021/03/06 03:55:05;;;;;;;3.97;3.30;;;;;;;;;;5093748;28;20228;-63
2021/03/06 03:57:32;;;;;;;6.13;4.55;;;;;;;;;;5093389;28;20207;-64
2021/03/06 04:00:00;;;;;;;6.75;4.03;;;;;;;;;;5093958;28;20196;-63
2021/03/06 04:02:28;;;;;;;4.53;3.97;;;;;;;;;;5093725;28;20367;-62
2021/03/06 04:07:50;;;;;;;7.05;3.75;;;;;;;;;;5112425;27;20544;-63
2021/03/06 04:10:17;;;;;;;7.20;3.50;;;;;;;;;;5112478;28;20202;-62
2021/03/06 04:12:44;;;;;;;9.43;4.00;;;;;;;;;;5113161;28;20257;-63
2021/03/06 04:15:12;;;;;;;15.07;4.45;;;;;;;;;;5092009;28;20196;-63
2021/03/06 04:17:39;;;;;;;5.78;3.92;;;;;;;;;;5092969;28;20207;-63
2021/03/06 04:20:07;;;;;;;5.40;3.90;;;;;;;;;;5092999;28;20245;-62
2021/03/06 04:22:34;;;;;;;5.38;4.07;;;;;;;;;;5091760;28;20209;-63
2021/03/06 04:25:02;;;;;;;5.03;3.90;;;;;;;;;;5090994;28;20224;-63
2021/03/06 04:27:28;;;;;;;10.57;4.55;;;;;;;;;;5091092;28;20269;-64
2021/03/06 04:29:55;;;;;;;5.65;3.53;;;;;;;;;;5091136;28;20200;-63
2021/03/06 04:32:22;;;;;;;4.70;3.70;;;;;;;;;;5091327;28;20204;-63
2021/03/06 04:34:48;;;;;;;8.02;3.88;;;;;;;;;;5091165;28;20226;-63
2021/03/06 04:37:15;;;;;;;6.93;4.22;;;;;;;;;;5091211;28;20200;-63
2021/03/06 04:39:42;;;;;;;3.97;3.58;;;;;;;;;;5097230;28;20200;-64
2021/03/06 04:42:10;;;;;;;8.52;6.25;;;;;;;;;;5098167;28;20212;-63
2021/03/06 04:44:37;;;;;;;6.25;4.03;;;;;;;;;;5090855;28;20217;-64
2021/03/06 04:47:04;;;;;;;5.78;3.88;;;;;;;;;;5090502;28;20224;-63
2021/03/06 04:49:31;;;;;;;6.75;4.35;;;;;;;;;;5090499;28;20278;-63
2021/03/06 04:51:58;;;;;;;6.70;3.60;;;;;;;;;;5090405;28;20199;-63
2021/03/06 04:54:24;;;;;;;3.50;3.20;;;;;;;;;;5090002;28;20727;-64
2021/03/06 04:56:51;;;;;;;6.20;3.88;;;;;;;;;;5089819;28;20749;-63
2021/03/06 04:59:19;;;;;;;5.55;3.55;;;;;;;;;;5090482;28;20230;-63
2021/03/06 05:01:46;;;;;;;4.25;3.75;;;;;;;;;;5089508;28;20277;-64
2021/03/06 05:04:12;;;;;;;7.22;4.38;;;;;;;;;;5089428;28;20216;-63
2021/03/06 05:06:39;;;;;;;7.60;4.00;;;;;;;;;;5089415;28;20220;-63
2021/03/06 05:09:06;;;;;;;21.60;5.95;;;;;;;;;;5089787;28;20196;-64
2021/03/06 05:11:33;;;;;;;7.25;4.57;;;;;;;;;;5089755;28;20204;-63
2021/03/06 05:13:59;;;;;;;4.53;3.47;;;;;;;;;;5089663;28;20224;-62
2021/03/06 05:16:27;;;;;;;5.13;3.38;;;;;;;;;;5089411;28;20673;-63
2021/03/06 05:18:54;;;;;;;8.55;3.70;;;;;;;;;;5077573;28;20201;-64
2021/03/06 05:21:21;;;;;;;4.93;3.25;;;;;;;;;;5076088;28;20629;-62
2021/03/06 05:23:47;;;;;;;5.38;2.95;;;;;;;;;;5075968;28;20232;-64
2021/03/06 05:26:14;;;;;;;6.75;3.28;;;;;;;;;;5075976;28;20225;-64
2021/03/06 05:28:41;;;;;;;8.95;3.45;;;;;;;;;;5076854;28;20209;-63
2021/03/06 05:31:07;;;;;;;5.80;3.00;;;;;;;;;;5076459;28;20196;-63
2021/03/06 05:33:35;;;;;;;8.55;4.50;;;;;;;;;;5076532;28;20279;-62
2021/03/06 05:36:02;;;;;;;4.85;3.35;;;;;;;;;;5076561;28;20197;-63
2021/03/06 05:38:29;;;;;;;5.28;3.67;;;;;;;;;;5076810;28;20201;-63
2021/03/06 05:40:56;;;;;;;7.55;3.78;;;;;;;;;;5076636;28;20242;-63
2021/03/06 05:43:23;;;;;;;6.18;3.10;;;;;;;;;;5076227;28;20228;-64
2021/03/06 05:45:50;;;;;;;5.38;3.53;;;;;;;;;;5077608;28;20220;-64
2021/03/06 05:48:17;;;;;;;8.40;3.08;;;;;;;;;;5076600;28;20637;-63
2021/03/06 05:50:45;;;;;;;6.35;2.80;;;;;;;;;;5076907;28;20204;-63
2021/03/06 05:53:15;;;;;;;7.68;3.17;;;;;;;;;;5080298;28;20217;-63
2021/03/06 05:55:43;;;;;;;6.85;3.40;;;;;;;;;;5081230;28;20201;-64
2021/03/06 05:58:10;;;;;;;8.77;3.15;;;;;;;;;;5078711;28;20610;-64
2021/03/06 06:00:37;;;;;;;4.43;3.15;;;;;;;;;;5076108;28;20669;-64
2021/03/06 06:03:04;;;;;;;8.43;3.90;;;;;;;;;;5075688;28;20672;-64
2021/03/06 06:05:31;;;;;;;9.63;3.60;;;;;;;;;;5075691;28;20204;-63
2021/03/06 06:08:02;;;;;;;5.03;2.78;;;;;;;;;;5076859;28;20185;-64
2021/03/06 06:10:30;;;;;;;4.97;3.25;;;;;;;;;;5075269;28;20703;-63
2021/03/06 06:12:57;;;;;;;3.40;2.85;;;;;;;;;;5075014;28;20640;-63
2021/03/06 06:15:24;;;;;;;7.40;2.70;;;;;;;;;;5074835;28;20201;-64
2021/03/06 06:17:51;;;;;;;4.45;2.50;;;;;;;;;;5074930;28;20700;-64
2021/03/06 06:20:17;;;;;;;5.68;2.40;;;;;;;;;;5075059;28;20197;-64
2021/03/06 06:22:45;;;;;;;6.80;2.85;;;;;;;;;;5075054;28;20201;-64
2021/03/06 06:25:30;;;;;;;3.90;2.00;;;;;;;;;;5074990;28;20201;-63
2021/03/06 06:28:00;;;;;;;8.80;2.78;;;;;;;;;;5075079;28;20205;-64
2021/03/06 06:30:26;;;;;;;9.63;2.60;;;;;;;;;;5073816;28;20728;-64
2021/03/06 06:32:53;;;;;;;8.48;2.53;;;;;;;;;;5074989;28;20280;-64
2021/03/06 06:35:20;;;;;;;6.80;2.30;;;;;;;;;;5074833;28;20209;-64
2021/03/06 06:37:56;;;;;;;3.80;2.00;;;;;;;;;;5076018;28;20243;-64
2021/03/06 06:40:24;;;;;;;6.93;2.30;;;;;;;;;;5074735;28;20272;-65
2021/03/06 06:42:51;;;;;;;5.53;2.55;;;;;;;;;;5074145;28;20215;-63
2021/03/06 06:45:18;;;;;;;3.83;2.28;;;;;;;;;;5074768;28;20205;-64
2021/03/06 06:47:45;;;;;;;13.38;2.88;;;;;;;;;;5074740;28;20221;-62
2021/03/06 06:50:13;;;;;;;3.35;2.38;;;;;;;;;;5074888;28;20205;-63
2021/03/06 06:52:41;;;;;;;4.32;2.00;;;;;;;;;;5075116;28;20279;-64
2021/03/06 06:55:08;;;;;;;4.30;2.00;;;;;;;;;;5074541;28;20224;-63
2021/03/06 06:57:47;;;;;;;8.82;2.28;;;;;;;;;;5074085;28;20688;-64
2021/03/06 07:00:14;;;;;;;9.43;3.35;;;;;;;;;;5075447;28;20220;-64
2021/03/06 07:02:51;;;;;;;4.80;2.85;;;;;;;;;;5078321;28;20680;-65
2021/03/06 07:05:26;;;;;;;3.67;2.10;;;;;;;;;;5077152;28;20192;-63
2021/03/06 07:07:52;;;;;;;4.25;1.95;;;;;;;;;;5077566;28;20205;-64
2021/03/06 07:10:20;;;;;;;8.32;2.55;;;;;;;;;;5078753;28;20197;-64
2021/03/06 07:12:57;;;;;;;7.80;2.10;;;;;;;;;;5076097;28;20215;-63
2021/03/06 07:15:25;;;;;;;6.72;2.70;;;;;;;;;;5075153;28;20196;-63
2021/03/06 07:17:52;;;;;;;5.90;2.13;;;;;;;;;;5074222;28;20209;-64
2021/03/06 07:20:30;;;;;;;3.88;1.98;;;;;;;;;;5074810;28;20208;-64
2021/03/06 07:22:57;;;;;;;5.03;1.70;;;;;;;;;;5073920;28;20251;-62
2021/03/06 07:25:25;;;;;;;3.25;1.50;;;;;;;;;;5073982;28;20196;-63
2021/03/06 07:27:52;;;;;;;7.70;1.50;;;;;;;;;;5078226;28;20235;-64
2021/03/06 07:30:20;;;;;;;3.80;2.10;;;;;;;;;;5085404;28;20216;-65
2021/03/06 07:32:47;;;;;;;11.32;1.98;;;;;;;;;;5073760;28;20209;-64
2021/03/06 07:35:15;;;;;;;5.15;2.03;;;;;;;;;;5074087;28;20275;-64
2021/03/06 07:37:42;;;;;;;6.10;1.90;;;;;;;;;;5073840;28;20197;-63
2021/03/06 07:40:10;;;;;;;3.95;1.80;;;;;;;;;;5073586;28;20197;-63
2021/03/06 07:42:42;;;;;;;6.55;1.90;;;;;;;;;;5073510;28;20197;-63
2021/03/06 07:45:10;;;;;;;4.63;2.08;;;;;;;;;;5073685;28;20643;-64
2021/03/06 07:47:37;;;;;;;3.80;1.73;;;;;;;;;;5073836;28;20212;-63
2021/03/06 07:50:05;;;;;;;7.85;2.60;;;;;;;;;;5073802;28;20201;-63
2021/03/06 07:52:33;;;;;;;4.65;2.08;;;;;;;;;;5073794;28;20212;-63
2021/03/06 07:55:00;;;;;;;4.70;2.08;;;;;;;;;;5073506;28;20221;-64
2021/03/06 07:57:27;;;;;;;4.57;2.38;;;;;;;;;;5073317;28;20246;-63
2021/03/06 07:59:54;;;;;;;11.35;3.47;;;;;;;;;;5073567;28;20254;-63
2021/03/06 08:02:32;;;;;;;3.70;2.05;;;;;;;;;;5073489;28;20213;-63
2021/03/06 08:04:59;;;;;;;3.03;2.45;;;;;;;;;;5073777;28;20232;-63
2021/03/06 08:07:44;;;;;;;7.25;2.15;;;;;;;;;;5074472;28;20216;-63
2021/03/06 08:10:11;;;;;;;4.18;1.90;;;;;;;;;;5074809;28;20676;-62
2021/03/06 08:12:39;;;;;;;2.35;1.70;;;;;;;;;;5076519;28;20669;-67
2021/03/06 08:15:24;;;;;;;11.40;2.67;;;;;;;;;;5075732;28;20251;-64
2021/03/06 08:17:52;;;;;;;2.80;1.70;;;;;;;;;;5075577;28;20677;-62
2021/03/06 08:20:23;;;;;;;3.95;1.85;;;;;;;;;;5074428;28;20205;-63
2021/03/06 08:23:05;;;;;;;3.75;1.70;;;;;;;;;;5077124;28;20185;-64
2021/03/06 08:25:31;;;;;;;3.00;1.80;;;;;;;;;;5073890;28;20201;-64
2021/03/06 08:28:13;;;;;;;3.45;1.65;;;;;;;;;;5073300;28;20266;-63
2021/03/06 08:30:40;;;;;;;3.78;2.30;;;;;;;;;;5064876;28;20228;-64
2021/03/06 08:33:17;;;;;;;4.20;2.42;;;;;;;;;;5073208;28;20716;-64
2021/03/06 08:35:44;;;;;;;3.60;2.08;;;;;;;;;;5073277;28;20200;-63
2021/03/06 08:38:27;;;;;;;2.00;1.60;;;;;;;;;;5072996;28;20201;-64
2021/03/06 08:40:54;;;;;;;9.40;3.03;;;;;;;;;;5072732;28;20205;-64
2021/03/06 08:43:20;;;;;;;3.75;2.10;;;;;;;;;;5072970;28;20274;-63
2021/03/06 08:45:47;;;;;;;7.50;2.05;;;;;;;;;;5073189;28;20292;-64
2021/03/06 08:48:14;;;;;;;2.47;1.80;;;;;;;;;;5075396;28;20217;-62
2021/03/06 08:50:43;;;;;;;3.15;1.55;;;;;;;;;;5074964;28;20266;-63
2021/03/06 08:53:14;;;;;;;3.65;1.95;;;;;;;;;;5074665;28;20279;-62
2021/03/06 08:55:42;;;;;;;6.38;1.95;;;;;;;;;;5076751;28;20197;-64
2021/03/06 08:58:10;;;;;;;7.45;2.47;;;;;;;;;;5081200;28;20181;-64
2021/03/06 09:00:39;;;;;;;3.60;2.40;;;;;;;;;;5089988;28;20205;-64
2021/03/06 09:03:10;;;;;;;2.80;2.00;;;;;;;;;;5078987;28;20572;-62
2021/03/06 09:05:37;;;;;;;2.78;1.60;;;;;;;;;;5078932;28;20205;-63
2021/03/06 09:08:05;;;;;;;3.15;2.15;;;;;;;;;;5076865;28;20255;-64
2021/03/06 09:10:36;;;;;;;6.80;2.40;;;;;;;;;;5077147;28;20201;-63
2021/03/06 09:13:04;;;;;;;4.03;2.33;;;;;;;;;;5078621;28;20201;-64
2021/03/06 09:15:33;;;;;;;5.43;2.53;;;;;;;;;;5078167;28;20201;-62
2021/03/06 09:18:00;;;;;;;3.55;2.20;;;;;;;;;;5081240;28;20204;-64
2021/03/06 09:20:27;;;;;;;3.78;2.20;;;;;;;;;;5084978;28;20208;-64
2021/03/06 09:22:55;;;;;;;5.43;2.20;;;;;;;;;;5081344;28;20742;-62
2021/03/06 09:25:30;;;;;;;5.22;2.58;;;;;;;;;;5080920;28;20204;-64
2021/03/06 09:27:57;;;;;;;4.40;2.17;;;;;;;;;;5083269;28;20217;-64
2021/03/06 09:30:25;;;;;;;3.60;2.60;;;;;;;;;;5080790;28;20207;-62
2021/03/06 09:32:52;;;;;;;5.00;2.25;;;;;;;;;;5078432;28;20212;-65
2021/03/06 09:35:20;;;;;;;10.23;3.40;;;;;;;;;;5075965;28;20205;-62
2021/03/06 09:37:47;;;;;;;4.80;2.22;;;;;;;;;;5075526;28;20201;-63
2021/03/06 09:40:21;;;;;;;10.60;2.17;;;;;;;;;;5075984;28;20259;-63
2021/03/06 09:42:52;;;;;;;3.13;2.58;;;;;;;;;;5075955;28;20185;-63
2021/03/06 09:45:19;;;;;;;3.63;2.58;;;;;;;;;;5075842;28;20197;-63
2021/03/06 09:47:46;;;;;;;3.22;2.60;;;;;;;;;;5076101;28;20213;-64
2021/03/06 09:50:14;;;;;;;2.85;1.90;;;;;;;;;;5075960;28;20208;-64
2021/03/06 09:52:40;;;;;;;2.92;2.25;;;;;;;;;;5076193;28;20201;-64
2021/03/06 09:55:17;;;;;;;3.60;2.47;;;;;;;;;;5075640;28;20221;-64
2021/03/06 09:57:44;;;;;;;4.40;1.80;;;;;;;;;;5078354;28;20244;-62
2021/03/06 10:00:22;;;;;;;4.18;2.28;;;;;;;;;;5075181;28;20730;-63
2021/03/06 10:02:50;;;;;;;4.95;2.35;;;;;;;;;;5075741;28;20596;-61
2021/03/06 10:05:21;;;;;;;5.80;2.03;;;;;;;;;;5074883;28;20668;-63
2021/03/06 10:07:48;;;;;;;3.90;2.33;;;;;;;;;;5075125;28;20582;-63
2021/03/06 10:10:15;;;;;;;5.28;2.45;;;;;;;;;;5075083;28;20664;-63
2021/03/06 10:12:43;;;;;;;6.05;2.72;;;;;;;;;;5076136;28;20201;-63
2021/03/06 10:15:12;;;;;;;4.55;3.42;;;;;;;;;;5076831;28;20227;-63
2021/03/06 10:17:39;;;;;;;2.50;2.30;;;;;;;;;;5077138;28;20194;-62
2021/03/06 10:20:07;;;;;;;2.80;2.10;;;;;;;;;;5088499;28;20204;-63
2021/03/06 10:22:44;;;;;;;3.13;2.35;;;;;;;;;;5089148;28;20201;-61
2021/03/06 10:25:11;;;;;;;3.03;2.00;;;;;;;;;;5076211;28;20192;-62
2021/03/06 10:27:38;;;;;;;6.95;2.40;;;;;;;;;;5075719;28;20225;-61
2021/03/06 10:30:10;;;;;;;8.23;2.60;;;;;;;;;;5076561;28;20213;-63
2021/03/06 10:32:39;;;;;;;5.13;2.42;;;;;;;;;;5075608;28;20205;-62
2021/03/06 10:35:07;;;;;;;6.20;2.55;;;;;;;;;;5075263;28;20309;-62
2021/03/06 10:37:34;;;;;;;4.80;2.47;;;;;;;;;;5075754;28;20197;-63
2021/03/06 10:40:02;;;;;;;5.93;2.38;;;;;;;;;;5074983;28;20197;-63
2021/03/06 10:42:43;;;;;;;3.72;2.75;;;;;;;;;;5075313;28;20251;-63
2021/03/06 10:45:10;;;;;;;4.10;2.53;;;;;;;;;;5075609;28;20205;-63
2021/03/06 10:47:48;;;;;;;4.57;2.72;;;;;;;;;;5078453;28;20220;-63
2021/03/06 10:50:22;;;;;;;3.00;2.20;;;;;;;;;;5078035;28;20201;-63
2021/03/06 10:52:49;;;;;;;6.53;2.25;;;;;;;;;;5078246;28;20201;-64
2021/03/06 10:55:16;;;;;;;2.53;2.00;;;;;;;;;;5075809;28;20205;-63
2021/03/06 10:57:51;;;;;;;2.67;1.90;;;;;;;;;;5075805;28;20204;-62
2021/03/06 11:00:22;;;;;;;2.42;1.95;;;;;;;;;;5075580;28;20208;-60
2021/03/06 11:02:56;;;;;;;3.33;2.15;;;;;;;;;;5074364;28;20196;-64
2021/03/06 11:05:24;;;;;;;2.33;1.83;;;;;;;;;;5075094;28;20212;-63
2021/03/06 11:07:51;;;;;;;4.85;2.00;;;;;;;;;;5075314;28;20224;-64
2021/03/06 11:10:18;;;;;;;2.55;2.33;;;;;;;;;;5073845;28;20208;-62
2021/03/06 11:12:52;;;;;;;5.97;2.70;;;;;;;;;;5074171;28;20197;-61
2021/03/06 11:15:20;;;;;;;8.57;3.05;;;;;;;;;;5074121;28;20197;-63
2021/03/06 11:17:47;;;;;;;6.28;2.05;;;;;;;;;;5074330;28;20243;-61
2021/03/06 11:20:16;;;;;;;4.90;2.58;;;;;;;;;;5074494;28;20211;-62
2021/03/06 11:22:43;;;;;;;3.80;2.83;;;;;;;;;;5074441;28;20224;-62
2021/03/06 11:25:11;;;;;;;4.43;2.45;;;;;;;;;;5073684;28;20201;-63
2021/03/06 11:27:44;;;;;;;2.20;2.00;;;;;;;;;;5073455;28;20222;-64
2021/03/06 11:30:12;;;;;;;3.38;2.25;;;;;;;;;;5073764;28;20209;-63
2021/03/06 11:32:38;;;;;;;2.95;1.90;;;;;;;;;;5073902;28;20207;-63
2021/03/06 11:35:06;;;;;;;3.65;2.30;;;;;;;;;;5074129;28;20225;-63
2021/03/06 11:37:34;;;;;;;6.45;2.90;;;;;;;;;;5073381;28;20614;-63
2021/03/06 11:40:00;;;;;;;3.10;2.13;;;;;;;;;;5073361;28;20579;-63
2021/03/06 11:42:27;;;;;;;2.67;1.90;;;;;;;;;;5073554;28;20273;-64
2021/03/06 11:44:54;;;;;;;2.15;1.95;;;;;;;;;;5073168;28;20705;-64
2021/03/06 11:47:21;;;;;;;4.32;2.30;;;;;;;;;;5073758;28;20228;-63
2021/03/06 11:49:47;;;;;;;3.78;1.77;;;;;;;;;;5073240;28;20209;-64
2021/03/06 11:52:14;;;;;;;2.78;2.30;;;;;;;;;;5073441;28;20197;-64
2021/03/06 11:54:42;;;;;;;5.80;1.90;;;;;;;;;;5074349;28;20216;-64
2021/03/06 11:57:09;;;;;;;3.50;2.10;;;;;;;;;;5076347;28;20197;-65
2021/03/06 11:59:35;;;;;;;4.25;2.60;;;;;;;;;;5074688;28;20211;-64
2021/03/06 12:02:02;;;;;;;4.35;2.20;;;;;;;;;;5074585;28;20209;-64
2021/03/06 12:04:29;;;;;;;3.22;2.20;;;;;;;;;;5077201;28;20221;-64
2021/03/06 12:06:55;;;;;;;3.08;2.10;;;;;;;;;;5083930;28;20217;-65
2021/03/06 12:09:22;;;;;;;3.83;2.67;;;;;;;;;;5077035;28;20630;-63
2021/03/06 12:11:50;;;;;;;4.40;2.20;;;;;;;;;;5074997;28;20202;-64
2021/03/06 12:14:17;;;;;;;2.53;2.28;;;;;;;;;;5075642;28;20228;-65
2021/03/06 12:16:43;;;;;;;4.32;2.13;;;;;;;;;;5076546;28;20254;-64
2021/03/06 12:19:10;;;;;;;2.95;2.60;;;;;;;;;;5081499;28;20205;-63
2021/03/06 12:21:37;;;;;;;2.38;2.08;;;;;;;;;;5076769;28;20208;-64
2021/03/06 12:24:04;;;;;;;2.60;2.28;;;;;;;;;;5075381;28;20217;-62
2021/03/06 12:26:30;;;;;;;2.92;2.30;;;;;;;;;;5075475;28;20585;-65
2021/03/06 12:28:58;;;;;;;3.55;2.55;;;;;;;;;;5078602;28;20258;-63
2021/03/06 12:31:25;;;;;;;3.25;2.33;;;;;;;;;;5079395;28;20209;-64
2021/03/06 12:33:52;;;;;;;3.42;2.08;;;;;;;;;;5078456;28;20228;-65
2021/03/06 12:36:18;;;;;;;2.53;2.20;;;;;;;;;;5078702;28;20661;-63
2021/03/06 12:38:45;;;;;;;2.80;2.50;;;;;;;;;;5077489;28;20665;-64
2021/03/06 12:41:12;;;;;;;10.45;3.03;;;;;;;;;;5077936;28;20216;-64
2021/03/06 12:43:38;;;;;;;2.83;1.85;;;;;;;;;;5077793;28;20221;-64
2021/03/06 12:46:06;;;;;;;2.63;2.05;;;;;;;;;;5078407;28;20204;-64
2021/03/06 12:48:33;;;;;;;5.00;3.00;;;;;;;;;;5078376;28;20225;-63
2021/03/06 12:51:00;;;;;;;3.50;3.00;;;;;;;;;;5079900;28;20197;-64
2021/03/06 12:53:26;;;;;;;8.73;2.90;;;;;;;;;;5079687;28;20217;-65
2021/03/06 12:55:53;;;;;;;3.40;2.53;;;;;;;;;;5078049;28;20233;-64
2021/03/06 12:58:20;;;;;;;4.68;2.72;;;;;;;;;;5077030;28;20193;-64
2021/03/06 13:00:47;;;;;;;5.18;3.00;;;;;;;;;;5077721;28;20550;-62
2021/03/06 13:03:14;;;;;;;5.20;2.30;;;;;;;;;;5078103;28;20571;-63
2021/03/06 13:05:41;;;;;;;3.65;2.60;;;;;;;;;;5077463;28;20275;-64
2021/03/06 13:08:08;;;;;;;3.40;2.40;;;;;;;;;;5077676;28;20255;-65
2021/03/06 13:10:34;;;;;;;5.65;2.97;;;;;;;;;;5083251;28;20212;-64
2021/03/06 13:13:01;;;;;;;2.95;2.75;;;;;;;;;;5090788;28;20201;-64
2021/03/06 13:15:28;;;;;;;4.93;2.42;;;;;;;;;;5077967;28;20208;-64
2021/03/06 13:17:55;;;;;;;7.65;2.55;;;;;;;;;;5076974;28;20220;-63
2021/03/06 13:20:23;;;;;;;3.83;2.15;;;;;;;;;;5076574;28;20209;-64
2021/03/06 13:22:49;;;;;;;3.15;2.50;;;;;;;;;;5076395;28;20205;-63
2021/03/06 13:25:16;;;;;;;2.50;2.08;;;;;;;;;;5076890;28;20205;-65
2021/03/06 13:27:43;;;;;;;7.78;2.53;;;;;;;;;;5076091;28;20216;-65
2021/03/06 13:30:11;;;;;;;4.00;2.10;;;;;;;;;;5075836;28;20579;-64
2021/03/06 13:32:38;;;;;;;3.05;2.17;;;;;;;;;;5076221;28;20212;-63
2021/03/06 13:35:05;;;;;;;2.88;2.50;;;;;;;;;;5075473;28;20221;-64
2021/03/06 13:37:33;;;;;;;6.65;2.10;;;;;;;;;;5075593;28;20266;-64
2021/03/06 13:40:00;;;;;;;4.40;2.60;;;;;;;;;;5075311;28;20204;-64
2021/03/06 13:42:27;;;;;;;4.40;2.47;;;;;;;;;;5076060;28;20212;-66
2021/03/06 13:44:53;;;;;;;3.03;2.20;;;;;;;;;;5076232;28;20221;-63
2021/03/06 13:47:20;;;;;;;2.83;2.10;;;;;;;;;;5075863;28;20217;-65
2021/03/06 13:49:47;;;;;;;3.78;2.10;;;;;;;;;;5075776;28;20205;-64
2021/03/06 13:52:14;;;;;;;3.05;2.05;;;;;;;;;;5075443;28;20661;-63
2021/03/06 13:54:41;;;;;;;3.40;2.33;;;;;;;;;;5075848;28;20221;-64
2021/03/06 13:57:08;;;;;;;3.30;2.40;;;;;;;;;;5076867;28;20544;-63
2021/03/06 13:59:35;;;;;;;2.67;2.05;;;;;;;;;;5075768;28;20580;-63
2021/03/06 14:02:02;;;;;;;3.33;2.28;;;;;;;;;;5075448;28;20201;-64
2021/03/06 14:04:28;;;;;;;2.95;1.83;;;;;;;;;;5075344;28;20745;-64
2021/03/06 14:06:55;;;;;;;3.72;3.30;;;;;;;;;;5075320;28;20217;-64
2021/03/06 14:09:22;;;;;;;3.17;2.40;;;;;;;;;;5075543;28;20208;-65
2021/03/06 14:11:50;;;;;;;2.88;2.53;;;;;;;;;;5075625;28;20204;-65
2021/03/06 14:14:16;;;;;;;4.18;2.60;;;;;;;;;;5075256;28;20252;-64
2021/03/06 14:16:44;;;;;;;3.78;3.03;;;;;;;;;;5075341;28;20212;-64
2021/03/06 14:19:10;;;;;;;5.85;2.80;;;;;;;;;;5075733;28;20297;-63
2021/03/06 14:21:37;;;;;;;4.93;3.00;;;;;;;;;;5075318;28;20282;-65
2021/03/06 14:24:04;;;;;;;4.68;2.95;;;;;;;;;;5075532;28;20221;-64
2021/03/06 14:26:31;;;;;;;2.75;2.05;;;;;;;;;;5074898;28;20763;-65
2021/03/06 14:28:59;;;;;;;3.65;2.47;;;;;;;;;;5074701;28;20201;-65
2021/03/06 14:31:26;;;;;;;4.95;2.83;;;;;;;;;;5074756;28;20597;-65
2021/03/06 14:33:52;;;;;;;3.80;2.95;;;;;;;;;;5074713;28;20225;-64
2021/03/06 14:36:19;;;;;;;2.28;1.90;;;;;;;;;;5074760;28;20197;-64
2021/03/06 14:38:46;;;;;;;2.72;2.40;;;;;;;;;;5075510;28;20201;-64
2021/03/06 14:41:13;;;;;;;4.15;2.45;;;;;;;;;;5075413;28;20201;-65
2021/03/06 14:43:39;;;;;;;1.88;1.65;;;;;;;;;;5075424;28;20221;-62
2021/03/06 14:46:07;;;;;;;3.72;2.03;;;;;;;;;;5082176;28;20201;-64
2021/03/06 14:48:34;;;;;;;4.88;2.28;;;;;;;;;;5082164;28;20221;-64
2021/03/06 14:51:00;;;;;;;3.30;2.30;;;;;;;;;;5081733;28;20227;-63